createdAt,value
2023-02-14T00:02:12.168Z,23.35
2023-02-14T00:05:00.447Z,24.02
2023-02-14T00:07:48.268Z,23.70
2023-02-14T00:10:36.159Z,25.05
2023-02-14T00:13:24.022Z,24.88
2023-02-14T00:16:11.802Z,23.45
2023-02-14T00:19:05.688Z,22.88
2023-02-14T00:24:41.392Z,23.40
2023-02-14T00:27:29.199Z,23.33
2023-02-14T00:30:17.359Z,22.90
2023-02-14T00:33:04.979Z,23.67
2023-02-14T00:35:52.961Z,22.77
2023-02-14T00:38:40.670Z,22.67
2023-02-14T00:41:28.479Z,24.10
2023-02-14T00:44:17.049Z,22.98
2023-02-14T00:47:04.844Z,24.30
2023-02-14T00:49:52.593Z,23.55
2023-02-14T00:52:40.506Z,23.98
2023-02-14T00:55:28.336Z,25.52
2023-02-14T00:58:17.190Z,25.80
2023-02-14T01:01:06.084Z,26.80
2023-02-14T01:03:54.192Z,25.77
2023-02-14T01:06:43.060Z,26.58
2023-02-14T01:09:31.917Z,28.08
2023-02-14T01:12:19.539Z,27.95
2023-02-14T01:15:07.627Z,27.88
2023-02-14T01:17:55.320Z,29.08
2023-02-14T01:20:43.198Z,28.27
2023-02-14T01:23:31.097Z,29.52
2023-02-14T01:26:20.619Z,29.17
2023-02-14T01:29:08.616Z,26.27
2023-02-14T01:31:56.294Z,28.33
2023-02-14T01:34:44.203Z,27.58
2023-02-14T01:37:32.124Z,30.42
2023-02-14T01:40:20.148Z,31.00
2023-02-14T01:43:16.541Z,29.42
2023-02-14T01:46:04.797Z,30.20
2023-02-14T01:48:56.816Z,30.80
2023-02-14T01:51:54.556Z,29.48
2023-02-14T01:54:48.840Z,31.38
2023-02-14T01:57:52.393Z,33.40
2023-02-14T02:00:59.695Z,33.10
2023-02-14T02:03:56.556Z,32.85
2023-02-14T02:06:52.594Z,32.50
2023-02-14T02:09:50.886Z,31.40
2023-02-14T02:12:39.144Z,33.08
2023-02-14T02:15:28.689Z,32.20
2023-02-14T02:18:41.209Z,32.58
2023-02-14T02:21:43.686Z,31.13
2023-02-14T02:24:52.895Z,32.13
2023-02-14T02:28:03.494Z,33.42
2023-02-14T02:31:13.291Z,32.03
2023-02-14T02:34:15.854Z,33.33
2023-02-14T02:37:38.668Z,32.97
2023-02-14T02:40:33.450Z,32.38
2023-02-14T02:43:39.730Z,31.60
2023-02-14T02:46:47.796Z,32.42
2023-02-14T02:50:04.278Z,32.17
2023-02-14T02:53:07.753Z,30.27
2023-02-14T02:56:38.809Z,33.80
2023-02-14T02:59:37.335Z,32.75
2023-02-14T03:02:57.181Z,34.17
2023-02-14T03:05:45.120Z,34.03
2023-02-14T03:08:32.866Z,36.78
2023-02-14T03:11:20.996Z,34.28
2023-02-14T03:14:26.430Z,35.30
2023-02-14T03:17:20.833Z,34.50
2023-02-14T03:20:17.093Z,30.60
2023-02-14T03:23:15.134Z,32.97
2023-02-14T03:26:27.665Z,33.65
2023-02-14T03:29:24.458Z,31.45
2023-02-14T03:32:32.236Z,33.22
2023-02-14T03:35:24.907Z,33.38
2023-02-14T03:38:24.092Z,31.45
2023-02-14T03:41:18.300Z,34.55
2023-02-14T03:44:11.994Z,32.25
2023-02-14T03:47:04.959Z,31.30
2023-02-14T03:50:03.002Z,33.08
2023-02-14T03:52:54.036Z,37.08
2023-02-14T03:56:04.517Z,32.63
2023-02-14T03:58:57.133Z,33.80
2023-02-14T04:02:10.745Z,34.22
2023-02-14T04:05:00.959Z,32.23
2023-02-14T04:07:53.243Z,30.23
2023-02-14T04:10:44.517Z,33.63
2023-02-14T04:13:32.870Z,34.60
2023-02-14T04:16:21.046Z,32.70
2023-02-14T04:19:24.256Z,31.73
2023-02-14T04:22:12.164Z,36.00
2023-02-14T04:24:59.668Z,35.75
2023-02-14T04:27:47.738Z,33.60
2023-02-14T04:30:35.845Z,36.90
2023-02-14T04:33:24.220Z,37.88
2023-02-14T04:36:12.237Z,40.00
2023-02-14T04:38:59.930Z,40.60
2023-02-14T04:41:47.827Z,37.92
2023-02-14T04:44:35.641Z,37.22
2023-02-14T04:47:27.085Z,40.10
2023-02-14T04:53:23.110Z,42.00
2023-02-14T04:56:12.368Z,42.72
2023-02-14T04:59:02.302Z,44.03
2023-02-14T05:01:51.297Z,42.55
2023-02-14T05:04:39.107Z,44.00
2023-02-14T05:16:37.844Z,46.83
2023-02-14T05:25:30.339Z,58.20
2023-02-14T05:31:35.063Z,60.83
2023-02-14T05:46:15.437Z,80.53
2023-02-14T05:49:03.772Z,88.35
2023-02-14T05:51:51.862Z,97.38
2023-02-14T05:54:40.982Z,74.85
2023-02-14T05:57:28.896Z,88.85
2023-02-14T06:00:17.227Z,82.07
2023-02-14T06:03:05.241Z,84.30
2023-02-14T06:05:53.263Z,65.07
2023-02-14T06:08:41.534Z,83.55
2023-02-14T06:11:29.267Z,75.43
2023-02-14T06:14:18.776Z,80.60
2023-02-14T06:17:06.579Z,98.05
2023-02-14T06:19:54.656Z,86.20
2023-02-14T06:22:42.295Z,88.13
2023-02-14T06:25:30.557Z,103.57
2023-02-14T06:28:20.810Z,82.47
2023-02-14T06:34:11.027Z,83.65
2023-02-14T06:36:59.210Z,84.97
2023-02-14T06:39:49.702Z,87.55
2023-02-14T06:42:41.335Z,70.45
2023-02-14T06:45:29.935Z,92.82
2023-02-14T06:48:27.528Z,73.28
2023-02-14T06:51:16.282Z,96.72
2023-02-14T06:54:05.627Z,73.28
2023-02-14T06:57:01.172Z,81.22
2023-02-14T06:59:50.100Z,91.15
2023-02-14T07:02:38.108Z,78.93
2023-02-14T07:05:27.132Z,70.68
2023-02-14T07:08:15.593Z,71.53
2023-02-14T07:11:03.923Z,69.00
2023-02-14T07:13:52.087Z,80.40
2023-02-14T07:16:40.703Z,92.18
2023-02-14T07:19:28.570Z,67.22
2023-02-14T07:22:17.221Z,58.35
2023-02-14T07:25:07.376Z,63.17
2023-02-14T07:27:56.116Z,55.75
2023-02-14T07:30:44.687Z,52.30
2023-02-14T07:33:32.591Z,50.50
2023-02-14T07:36:22.249Z,55.05
2023-02-14T07:42:12.306Z,58.45
2023-02-14T07:45:03.144Z,54.22
2023-02-14T07:47:56.141Z,59.42
2023-02-14T07:50:44.189Z,54.25
2023-02-14T07:53:35.245Z,48.85
2023-02-14T07:59:08.296Z,46.53
2023-02-14T08:01:57.042Z,43.53
2023-02-14T08:04:49.355Z,42.78
2023-02-14T08:07:37.425Z,33.38
2023-02-14T08:10:24.931Z,33.97
2023-02-14T08:13:12.705Z,37.30
2023-02-14T08:16:06.831Z,38.47
2023-02-14T08:18:55.014Z,40.03
2023-02-14T08:21:42.606Z,38.83
2023-02-14T08:24:30.704Z,40.03
2023-02-14T08:27:18.489Z,38.15
2023-02-14T08:30:09.135Z,36.10
2023-02-14T08:32:56.967Z,35.20
2023-02-14T08:35:44.908Z,36.75
2023-02-14T08:38:34.243Z,32.83
2023-02-14T08:41:29.812Z,28.60
2023-02-14T08:44:25.413Z,29.73
2023-02-14T08:47:14.403Z,33.30
2023-02-14T08:50:07.716Z,32.83
2023-02-14T08:52:56.860Z,35.67
2023-02-14T08:55:45.879Z,35.03
2023-02-14T08:58:36.010Z,35.70
2023-02-14T09:01:24.866Z,35.42
2023-02-14T09:04:12.570Z,32.88
2023-02-14T09:07:00.469Z,31.67
2023-02-14T09:09:50.111Z,29.17
2023-02-14T09:12:42.113Z,30.30
2023-02-14T09:15:36.024Z,30.15
2023-02-14T09:18:23.915Z,30.77
2023-02-14T09:21:14.720Z,30.48
2023-02-14T09:24:02.594Z,29.65
2023-02-14T09:26:50.214Z,29.15
2023-02-14T09:29:38.099Z,29.83
2023-02-14T09:32:27.611Z,27.02
2023-02-14T09:35:16.487Z,27.52
2023-02-14T09:38:04.483Z,28.63
2023-02-14T09:40:52.299Z,30.98
2023-02-14T09:43:57.077Z,32.60
2023-02-14T09:46:53.489Z,35.20
2023-02-14T09:49:44.348Z,36.85
2023-02-14T09:55:47.984Z,39.10
2023-02-14T09:59:13.686Z,37.33
2023-02-14T10:02:23.102Z,38.38
2023-02-14T10:05:22.427Z,35.92
2023-02-14T10:08:10.177Z,40.55
2023-02-14T10:11:04.999Z,37.42
2023-02-14T10:13:58.003Z,39.40
2023-02-14T10:16:52.362Z,38.63
2023-02-14T10:19:58.140Z,38.92
2023-02-14T10:23:03.873Z,36.67
2023-02-14T10:32:12.934Z,40.22
2023-02-14T10:35:19.141Z,42.95
2023-02-14T10:38:40.013Z,40.38
2023-02-14T10:41:54.922Z,43.67
2023-02-14T10:45:17.986Z,45.15
2023-02-14T10:48:08.829Z,43.50
2023-02-14T10:51:45.650Z,45.80
2023-02-14T10:54:39.455Z,45.67
2023-02-14T10:57:35.983Z,43.28
2023-02-14T11:00:28.505Z,42.70
2023-02-14T11:03:16.877Z,39.20
2023-02-14T11:06:04.785Z,38.67
2023-02-14T11:08:56.115Z,37.08
2023-02-14T11:11:53.529Z,39.35
2023-02-14T11:14:41.697Z,36.30
2023-02-14T11:17:32.774Z,36.83
2023-02-14T11:20:33.142Z,36.78
2023-02-14T11:23:22.205Z,38.67
2023-02-14T11:26:33.096Z,37.03
2023-02-14T11:29:30.947Z,34.72
2023-02-14T11:32:24.429Z,35.53
2023-02-14T11:35:21.152Z,34.85
2023-02-14T11:38:34.901Z,34.65
2023-02-14T11:41:25.137Z,36.43
2023-02-14T11:44:22.691Z,34.85
2023-02-14T11:47:34.126Z,36.22
2023-02-14T11:50:25.277Z,36.53
2023-02-14T11:53:21.055Z,35.90
2023-02-14T11:56:09.143Z,37.00
2023-02-14T11:59:03.655Z,35.78
2023-02-14T12:01:52.479Z,34.83
2023-02-14T12:04:46.620Z,34.35
2023-02-14T12:07:38.017Z,34.42
2023-02-14T12:10:37.092Z,36.50
2023-02-14T12:13:26.543Z,34.92
2023-02-14T12:16:30.438Z,36.03
2023-02-14T12:19:24.915Z,35.97
2023-02-14T12:22:37.607Z,37.17
2023-02-14T12:25:33.380Z,32.53
2023-02-14T12:28:31.910Z,34.25
2023-02-14T12:31:20.306Z,33.80
2023-02-14T12:34:14.044Z,34.40
2023-02-14T12:37:18.106Z,35.78
2023-02-14T12:40:17.617Z,33.05
2023-02-14T12:43:38.393Z,32.50
2023-02-14T12:46:48.127Z,32.83
2023-02-14T12:49:54.747Z,32.85
2023-02-14T12:53:12.157Z,33.67
2023-02-14T12:56:34.712Z,33.25
2023-02-14T12:59:40.710Z,34.33
2023-02-14T13:02:52.607Z,33.55
2023-02-14T13:06:13.180Z,34.58
2023-02-14T13:09:24.134Z,33.65
2023-02-14T13:12:37.542Z,36.08
2023-02-14T13:15:31.827Z,35.50
2023-02-14T13:18:50.970Z,35.85
2023-02-14T13:21:40.627Z,36.95
2023-02-14T13:24:35.625Z,37.20
2023-02-14T13:27:27.842Z,36.78
2023-02-14T13:30:32.300Z,35.53
2023-02-14T13:33:36.517Z,35.03
2023-02-14T13:36:25.685Z,34.70
2023-02-14T13:39:36.288Z,34.08
2023-02-14T13:42:49.418Z,35.28
2023-02-14T13:45:40.211Z,35.42
2023-02-14T13:48:29.994Z,35.95
2023-02-14T13:51:17.655Z,38.40
2023-02-14T13:54:21.513Z,40.05
2023-02-14T13:57:29.411Z,38.63
2023-02-14T14:00:20.303Z,38.13
2023-02-14T14:03:14.360Z,38.00
2023-02-14T14:08:54.486Z,38.63
2023-02-14T14:11:42.144Z,36.38
2023-02-14T14:14:36.310Z,38.05
2023-02-14T14:17:26.179Z,36.30
2023-02-14T14:20:16.867Z,38.75
2023-02-14T14:23:28.381Z,38.67
2023-02-14T14:26:37.991Z,39.00
2023-02-14T14:29:28.544Z,37.88
2023-02-14T14:32:27.869Z,40.53
2023-02-14T14:35:15.881Z,40.35
2023-02-14T14:38:03.532Z,37.03
2023-02-14T14:40:52.183Z,41.65
2023-02-14T14:43:40.786Z,44.33
2023-02-14T14:46:28.684Z,40.88
2023-02-14T14:49:17.392Z,42.45
2023-02-14T14:52:07.036Z,39.53
2023-02-14T14:54:55.170Z,39.90
2023-02-14T14:57:50.300Z,41.35
2023-02-14T15:00:39.019Z,41.03
2023-02-14T15:03:28.734Z,40.47
2023-02-14T15:06:19.317Z,40.50
2023-02-14T15:09:30.480Z,39.88
2023-02-14T15:12:41.014Z,40.28
2023-02-14T15:15:28.771Z,39.67
2023-02-14T15:18:17.495Z,41.08
2023-02-14T15:21:06.936Z,39.95
2023-02-14T15:23:55.234Z,40.75
2023-02-14T15:26:45.945Z,40.30
2023-02-14T15:29:33.586Z,40.70
2023-02-14T15:32:28.301Z,37.38
2023-02-14T15:35:18.778Z,37.05
2023-02-14T17:49:24.071Z,59.63
2023-02-14T17:52:30.105Z,49.47
2023-02-14T17:55:29.744Z,52.22
2023-02-14T18:01:26.518Z,52.47
2023-02-14T18:04:15.480Z,50.75
2023-02-14T18:07:05.389Z,50.58
2023-02-14T18:09:53.712Z,49.97
2023-02-14T18:12:42.690Z,51.97
2023-02-14T18:15:31.276Z,51.42
2023-02-14T18:18:20.130Z,51.75
2023-02-14T18:21:11.297Z,49.42
2023-02-14T18:24:00.262Z,51.03
2023-02-14T18:26:48.540Z,53.40
2023-02-14T18:29:37.108Z,52.85
2023-02-14T18:32:26.534Z,53.03
2023-02-14T18:35:19.261Z,55.85
2023-02-14T18:38:08.659Z,71.63
2023-02-14T18:41:02.886Z,78.28
2023-02-14T18:43:52.535Z,86.68
2023-02-14T18:46:41.486Z,70.05
2023-02-14T18:49:30.126Z,66.00
2023-02-14T18:52:18.255Z,57.97
2023-02-14T18:55:07.170Z,54.50
2023-02-14T18:57:55.508Z,51.53
2023-02-14T19:00:43.897Z,60.67
2023-02-14T19:03:32.078Z,58.10
2023-02-14T19:06:21.349Z,56.17
2023-02-14T19:09:14.591Z,56.95
2023-02-14T19:12:04.908Z,55.05
2023-02-14T19:14:57.262Z,55.05
2023-02-14T19:17:45.492Z,52.85
2023-02-14T19:20:35.162Z,53.40
2023-02-14T19:29:23.973Z,48.55
2023-02-14T19:32:13.781Z,46.07
2023-02-14T19:35:02.664Z,45.10
2023-02-14T19:37:54.783Z,49.22
2023-02-14T19:40:45.543Z,45.92
2023-02-14T19:43:33.743Z,46.80
2023-02-14T19:46:22.492Z,48.75
2023-02-14T19:49:16.212Z,45.65
2023-02-14T19:52:06.201Z,45.75
2023-02-14T19:54:58.016Z,49.83
2023-02-14T19:57:48.630Z,46.85
2023-02-14T20:00:39.306Z,47.97
2023-02-14T20:03:28.082Z,48.80
2023-02-14T20:06:24.880Z,48.00
2023-02-14T20:09:24.783Z,46.10
2023-02-14T20:12:13.168Z,45.38
2023-02-14T20:15:02.032Z,47.30
2023-02-14T20:17:51.567Z,50.30
2023-02-14T20:21:04.695Z,49.00
2023-02-14T20:23:56.841Z,49.45
2023-02-14T20:26:54.162Z,49.42
2023-02-14T20:29:54.258Z,46.22
2023-02-14T20:32:42.299Z,47.90
2023-02-14T20:35:35.230Z,50.03
2023-02-14T20:38:26.429Z,47.88
2023-02-14T20:41:19.831Z,49.05
2023-02-14T20:44:12.867Z,48.92
2023-02-14T20:47:06.948Z,36.33
2023-02-14T20:50:02.337Z,50.97
2023-02-14T20:52:59.178Z,49.10
2023-02-14T20:55:53.638Z,47.15
2023-02-14T20:58:42.844Z,46.08
2023-02-14T21:01:33.783Z,50.33
2023-02-14T21:04:22.550Z,55.30
2023-02-14T21:07:16.378Z,56.65
2023-02-14T21:12:58.762Z,54.00
2023-02-14T21:15:47.205Z,53.40
2023-02-14T21:18:39.386Z,54.28
2023-02-14T21:21:43.711Z,56.00
2023-02-14T21:24:34.004Z,53.17
2023-02-14T21:27:28.010Z,55.20
2023-02-14T21:33:10.767Z,52.85
2023-02-14T21:36:11.567Z,56.25
2023-02-14T21:39:05.410Z,58.42
2023-02-14T21:42:01.528Z,50.13
2023-02-14T21:45:11.624Z,54.58
2023-02-14T21:48:22.828Z,50.58
2023-02-14T21:51:22.703Z,52.63
2023-02-14T21:54:14.199Z,52.88
2023-02-14T21:57:05.846Z,55.42
2023-02-14T21:59:59.501Z,57.90
2023-02-14T22:03:23.015Z,55.83
2023-02-14T22:06:17.391Z,58.58
2023-02-14T22:09:10.220Z,56.33
2023-02-14T22:12:10.768Z,59.22
2023-02-14T22:15:01.873Z,56.58
2023-02-14T22:17:56.142Z,61.95
2023-02-14T22:20:47.958Z,57.67
2023-02-14T22:23:42.162Z,58.33
2023-02-14T22:26:46.524Z,57.47
2023-02-14T22:29:35.030Z,58.35
2023-02-14T22:32:25.629Z,59.60
2023-02-14T22:35:14.099Z,59.92
2023-02-14T22:38:02.100Z,60.10
2023-02-14T22:40:50.168Z,58.83
2023-02-14T22:43:39.549Z,56.58
2023-02-14T22:46:28.763Z,57.30
2023-02-14T22:49:17.234Z,58.60
2023-02-14T22:52:05.349Z,57.28
2023-02-14T22:54:53.630Z,63.83
2023-02-14T22:57:41.791Z,59.65
2023-02-14T23:00:29.852Z,60.03
2023-02-14T23:03:17.917Z,60.63
2023-02-14T23:06:06.219Z,60.55
2023-02-14T23:09:02.621Z,62.35
2023-02-14T23:11:54.985Z,55.17
2023-02-14T23:15:01.573Z,59.70
2023-02-14T23:18:14.437Z,58.53
2023-02-14T23:21:20.986Z,58.58
2023-02-14T23:24:09.195Z,50.67
2023-02-14T23:26:57.267Z,52.30
2023-02-14T23:29:45.436Z,53.92
2023-02-14T23:32:33.648Z,50.20
2023-02-14T23:35:21.805Z,50.00
2023-02-14T23:38:09.998Z,48.33
2023-02-14T23:41:18.368Z,50.15
2023-02-14T23:44:06.503Z,50.53
2023-02-14T23:46:56.677Z,51.95
2023-02-14T23:49:46.247Z,50.05
2023-02-14T23:52:34.499Z,51.08
2023-02-14T23:55:22.781Z,52.03
2023-02-14T23:58:10.949Z,53.72
